CW5248 Weather Reports


Display with metric or nautical units.
time (UTC)temp
F
wind
direction
speed
MPH
gust
MPH
rain 1hr
in
rain 24hr
in
rain mn
in
humidity
%
barometer
mb
20180624125338 47 280 0.0 1.0 0.00 0.00 0.00 78 1018.6
20180624124346 47 286 0.0 2.0 0.00 0.00 0.00 79 1019.0
20180624123332 47 325 1.0 4.0 0.00 0.00 0.00 79 1018.9
20180624122347 47 325 0.0 3.0 0.00 0.00 0.00 79 1018.9
20180624121334 47 46 1.0 5.0 0.00 0.00 0.00 79 1018.6
20180624120340 47 304 3.0 9.0 0.00 0.00 0.00 79 1018.3
20180624115332 47 9 3.0 8.0 0.00 0.00 0.00 78 1018.3
20180624114339 47 337 1.0 4.0 0.00 0.00 0.00 77 1017.9
20180624113347 47 36 3.0 6.0 0.00 0.00 0.00 77 1017.9
20180624112334 47 341 1.0 6.0 0.00 0.00 0.00 76 1017.9
20180624111344 47 327 2.0 6.0 0.00 0.00 0.00 76 1017.6
20180624110329 47 325 1.0 4.0 0.00 0.00 0.00 76 1017.6
20180624105341 47 317 1.0 8.0 0.00 0.00 0.00 77 1017.6
20180624104332 47 308 2.0 4.0 0.00 0.00 0.00 77 1017.5
20180624103338 47 321 2.0 5.0 0.00 0.00 0.00 81 1017.6
20180624102351 47 46 1.0 4.0 0.00 0.00 0.00 79 1017.6
20180624101336 47 303 1.0 5.0 0.00 0.00 0.00 79 1017.6
20180624100348 47 301 0.0 4.0 0.00 0.00 0.00 79 1017.7
20180624095336 46 294 0.0 2.0 0.00 0.00 0.00 79 1017.7
20180624094343 46 308 0.0 0.0 0.00 0.00 0.00 78 1017.8
20180624093347 46 308 0.0 0.0 0.00 0.00 0.00 77 1017.6
20180624092339 46 308 0.0 0.0 0.00 0.00 0.00 76 1017.6
20180624091349 46 308 0.0 5.0 0.00 0.00 0.00 76 1018.0
20180624090333 46 303 1.0 3.0 0.00 0.00 0.00 75 1018.3
20180624085340 46 279 0.0 3.0 0.00 0.00 0.00 74 1018.3
20180624084350 46 326 0.0 2.0 0.00 0.00 0.00 72 1018.3
20180624083335 47 318 0.0 2.0 0.00 0.00 0.00 71 1018.2
20180624082341 47 310 1.0 3.0 0.00 0.00 0.00 69 1018.2
20180624081348 48 334 0.0 2.0 0.00 0.00 0.00 68 1018.2
20180624080338 48 333 0.0 2.0 0.00 0.00 0.00 67 1018.1
20180624075348 49 5 2.0 6.0 0.00 0.00 0.00 67 1018.1
20180624074338 49 271 3.0 8.0 0.00 0.00 0.00 66 1018.2
20180624073342 49 291 3.0 7.0 0.00 0.00 0.00 65 1018.1
20180624072334 50 304 3.0 8.0 0.00 0.00 0.00 64 1018.1
20180624071446 50 355 2.0 8.0 0.00 0.00 0.00 64 1018.3
20180624070348 50 301 1.0 7.0 0.00 0.00 0.00 64 1018.3
20180624065342 51 324 1.0 6.0 0.00 0.00 0.00 64 1018.3
20180624064347 51 336 3.0 10.0 0.00 0.00 0.00 64 1018.2
20180624063335 51 290 4.0 9.0 0.00 0.00 0.00 64 1017.4
20180624062343 51 321 1.0 4.0 0.00 0.00 0.00 58 1017.4
20180624061334 51 296 1.0 3.0 0.00 0.00 0.00 55 1016.9
20180624060348 52 296 1.0 3.0 0.00 0.00 0.00 53 1016.4
20180624055350 52 65 1.0 3.0 0.00 0.00 0.00 53 1016.4
20180624054334 53 46 1.0 4.0 0.00 0.00 0.00 52 1016.3
20180624053410 53 51 2.0 4.0 0.00 0.00 0.00 52 1015.9
20180624052333 53 57 2.0 4.0 0.00 0.00 0.00 51 1015.9
20180624051343 54 94 2.0 3.0 0.00 0.00 0.00 50 1015.5
20180624050339 54 136 1.0 6.0 0.00 0.00 0.00 49 1015.5
20180624045330 54 80 1.0 3.0 0.00 0.00 0.00 45 1015.5
20180624044340 55 97 1.0 4.0 0.00 0.00 0.00 43 1015.5
20180624043325 56 92 1.0 3.0 0.00 0.00 0.00 42 1015.5
20180624042339 57 315 1.0 3.0 0.00 0.00 0.00 41 1015.5
20180624041329 58 84 4.0 6.0 0.00 0.00 0.00 42 1015.6
20180624040335 59 69 2.0 5.0 0.00 0.00 0.00 32 1015.6
20180624035330 61 107 2.0 5.0 0.00 0.00 0.00 34 1015.6
20180624034335 61 97 3.0 5.0 0.00 0.00 0.00 37 1015.5
20180624033346 62 121 5.0 8.0 0.00 0.00 0.00 33 1015.2
20180624032331 61 88 4.0 9.0 0.00 0.00 0.00 25 1015.2
20180624031345 61 90 3.0 5.0 0.00 0.00 0.00 23 1015.2
20180624030330 63 63 4.0 6.0 0.00 0.00 0.00 22 1015.1
20180624025342 64 58 1.0 4.0 0.00 0.00 0.00 21 1015.1
20180624024331 66 23 1.0 2.0 0.00 0.00 0.00 19 1014.9
20180624023339 68 40 2.0 3.0 0.00 0.00 0.00 17 1014.9
20180624022347 70 329 1.0 3.0 0.00 0.00 0.00 16 1014.9
20180624021335 71 303 1.0 5.0 0.00 0.00 0.00 16 1014.9
20180624020341 72 306 2.0 5.0 0.00 0.00 0.00 15 1014.6
20180624015333 72 307 7.0 11.0 0.00 0.00 0.00 13 1014.6
20180624014341 73 277 9.0 14.0 0.00 0.00 0.00 13 1014.3
20180624013328 73 290 8.0 16.0 0.00 0.00 0.00 14 1014.3
20180624012338 72 279 5.0 9.0 0.00 0.00 0.00 14 1014.3
20180624011354 72 296 4.0 13.0 0.00 0.00 0.00 14 1014.3
20180624010332 73 274 6.0 12.0 0.00 0.00 0.00 14 1014.3
20180624005343 74 317 5.0 14.0 0.00 0.00 0.00 13 1014.3
20180624004336 75 300 7.0 18.0 0.00 0.00 0.00 13 1014.2
20180624003344 76 294 10.0 17.0 0.00 0.00 0.00 12 1014.0
20180624002355 76 293 10.0 17.0 0.00 0.00 0.00 12 1014.0
20180624001339 76 252 4.0 12.0 0.00 0.00 0.00 12 1014.0
20180624000329 76 313 6.0 15.0 0.00 0.00 0.00 13 1014.2
20180623235335 74 306 5.0 15.0 0.00 0.00 0.00 14 1014.2
20180623234344 74 295 9.0 15.0 0.00 0.00 0.00 12 1014.3
20180623233354 75 254 7.0 14.0 0.00 0.00 0.00 12 1014.3
20180623232347 76 342 8.0 15.0 0.00 0.00 0.00 11 1014.3
20180623231333 79 278 9.0 18.0 0.00 0.00 0.00 11 1014.3
20180623230349 78 263 7.0 20.0 0.00 0.00 0.00 11 1014.3
20180623225329 77 243 5.0 14.0 0.00 0.00 0.00 12 1014.3
20180623224339 77 311 6.0 12.0 0.00 0.00 0.00 24 1014.3
20180623223344 76 12 5.0 16.0 0.00 0.00 0.00 23 1014.2
20180623222336 75 180 6.0 17.0 0.00 0.00 0.00 21 1014.2
20180623221338 75 162 5.0 16.0 0.00 0.00 0.00 23 1014.4
20180623220346 76 94 4.0 10.0 0.00 0.00 0.00 27 1014.3
20180623215333 78 148 4.0 16.0 0.00 0.00 0.00 28 1014.3
20180623214344 79 12 3.0 9.0 0.00 0.00 0.00 27 1014.2
20180623213328 79 123 6.0 11.0 0.00 0.00 0.00 28 1014.3
20180623212340 78 294 3.0 7.0 0.00 0.00 0.00 12 1014.3
20180623211347 77 315 3.0 15.0 0.00 0.00 0.00 12 1014.5
20180623210331 77 227 5.0 15.0 0.00 0.00 0.00 10 1014.4
20180623205342 75 303 3.0 13.0 0.00 0.00 0.00 13 1014.4
20180623204335 74 288 1.0 11.0 0.00 0.00 0.00 13 1014.9
20180623203336 75 188 6.0 18.0 0.00 0.00 0.00 12 1014.9
20180623202343 75 126 3.0 15.0 0.00 0.00 0.00 13 1014.9
20180623201338 76 306 9.0 16.0 0.00 0.00 0.00 11 1014.9
20180623200346 76 171 8.0 12.0 0.00 0.00 0.00 11 1015.2
20180623195335 75 62 2.0 9.0 0.00 0.00 0.00 11 1015.2
20180623194348 75 298 6.0 16.0 0.00 0.00 0.00 12 1015.5
20180623193333 75 223 3.0 13.0 0.00 0.00 0.00 11 1015.8
20180623192341 75 249 7.0 15.0 0.00 0.00 0.00 13 1015.8
20180623191348 75 300 4.0 14.0 0.00 0.00 0.00 13 1016.3
20180623190332 75 288 13.0 20.0 0.00 0.00 0.00 12 1016.2
20180623185344 75 311 4.0 14.0 0.00 0.00 0.00 14 1016.2
20180623184332 74 267 5.0 17.0 0.00 0.00 0.00 14 1016.3
20180623183336 74 314 8.0 15.0 0.00 0.00 0.00 13 1016.4
20180623182332 74 5 6.0 13.0 0.00 0.00 0.00 13 1016.4
20180623181341 73 5 4.0 12.0 0.00 0.03 0.00 13 1016.9
20180623180346 73 296 8.0 19.0 0.00 0.03 0.00 13 1017.0
20180623175333 73 287 8.0 14.0 0.00 0.03 0.00 17 1017.0
20180623174326 73 281 5.0 14.0 0.00 0.03 0.00 15 1017.2
20180623173335 72 194 5.0 11.0 0.00 0.03 0.00 22 1017.6
20180623172343 71 290 5.0 13.0 0.00 0.03 0.00 25 1017.6
20180623171358 70 347 5.0 11.0 0.00 0.03 0.00 23 1017.6
20180623170341 71 248 6.0 12.0 0.00 0.03 0.00 24 1017.6
20180623165335 71 189 6.0 14.0 0.00 0.03 0.00 26 1017.6
20180623164340 71 207 5.0 10.0 0.00 0.03 0.00 26 1017.7
20180623163330 70 187 5.0 13.0 0.00 0.03 0.00 27 1017.8
20180623162341 69 287 5.0 16.0 0.00 0.03 0.00 27 1017.8
20180623161334 69 209 6.0 13.0 0.00 0.03 0.00 26 1017.7
20180623160341 68 198 3.0 8.0 0.00 0.03 0.00 30 1018.1
20180623155335 67 237 7.0 13.0 0.00 0.03 0.00 34 1018.1
20180623154344 67 300 4.0 9.0 0.00 0.03 0.00 38 1018.3
20180623153332 66 300 6.0 10.0 0.00 0.03 0.00 39 1018.3
20180623152338 65 107 1.0 4.0 0.00 0.03 0.00 41 1018.3
20180623151328 63 61 2.0 4.0 0.00 0.03 0.00 43 1018.3
20180623150349 61 298 3.0 6.0 0.00 0.03 0.00 46 1018.3
20180623145351 59 92 0.0 0.0 0.00 0.03 0.00 51 1018.3
20180623144333 56 355 0.0 0.0 0.00 0.03 0.00 53 1018.3
20180623143343 54 38 0.0 0.0 0.00 0.03 0.00 61 1018.4
20180623142330 52 82 0.0 0.0 0.00 0.03 0.00 65 1018.4
20180623141340 51 61 0.0 0.0 0.00 0.03 0.00 70 1018.6
20180623140351 49 61 0.0 0.0 0.00 0.03 0.00 74 1018.6
20180623135345 48 61 0.0 0.0 0.00 0.03 0.00 76 1018.6
20180623134329 47 61 0.0 0.0 0.00 0.03 0.00 77 1018.7
20180623133334 47 61 0.0 3.0 0.00 0.03 0.00 79 1018.7
20180623132328 46 61 2.0 5.0 0.00 0.03 0.00 80 1018.7
20180623131336 45 55 1.0 4.0 0.00 0.03 0.00 82 1018.6
20180623130342 44 63 2.0 6.0 0.00 0.03 0.00 83 1018.9